Time;durP1;ratioP1;P1;durP2;ratioP2;P2;SDS_P1;SDS_P2;PMS_P1;PMS_P2;Temp;Humidity;BMP_temperature;BMP_pressure;BME280_temperature;BME280_humidity;BME280_pressure;Samples;Min_cycle;Max_cycle;Signal;HPM_P1;HPM_P2
2023/10/16 00:00:43;;;;;;;0.50;0.50;;;;;;;9.04;96.99;101186.44;5028211;28;20079;-68
2023/10/16 00:03:12;;;;;;;0.20;0.20;;;;;;;9.01;97.07;101187.91;5025157;28;20042;-69
2023/10/16 00:05:45;;;;;;;0.43;0.30;;;;;;;8.88;97.50;101183.56;5029717;28;20037;-68
2023/10/16 00:08:12;;;;;;;1.90;0.50;;;;;;;8.99;97.73;101183.97;5031906;28;20029;-67
2023/10/16 00:10:37;;;;;;;0.38;0.38;;;;;;;8.91;97.41;101182.94;5032097;28;20044;-67
2023/10/16 00:13:10;;;;;;;0.40;0.40;;;;;;;8.98;97.22;101185.09;5025578;28;20038;-68
2023/10/16 00:15:40;;;;;;;1.10;0.47;;;;;;;9.02;97.51;101185.97;5028810;28;20037;-67
2023/10/16 00:18:13;;;;;;;0.30;0.30;;;;;;;9.00;97.34;101185.53;5032365;28;20585;-68
2023/10/16 00:20:42;;;;;;;0.68;0.68;;;;;;;9.02;97.06;101194.03;5030123;28;20033;-68
2023/10/16 00:23:11;;;;;;;1.30;0.20;;;;;;;9.02;96.80;101194.81;5024690;28;20036;-68
2023/10/16 00:25:39;;;;;;;3.17;0.50;;;;;;;9.01;97.18;101190.59;5028119;28;20036;-67
2023/10/16 00:28:09;;;;;;;0.20;0.20;;;;;;;8.94;96.76;101201.06;5029899;28;20099;-67
2023/10/16 00:30:38;;;;;;;0.35;0.35;;;;;;;8.96;97.42;101190.00;5043326;28;20498;-68
2023/10/16 00:33:08;;;;;;;0.85;0.40;;;;;;;8.94;97.11;101201.06;5029858;28;20033;-68
2023/10/16 00:35:34;;;;;;;0.82;0.60;;;;;;;9.00;97.04;101196.28;5026965;28;20026;-68
2023/10/16 00:38:03;;;;;;;0.70;0.43;;;;;;;9.10;96.86;101201.22;5030683;28;20030;-68
2023/10/16 00:40:32;;;;;;;1.40;0.68;;;;;;;9.04;96.73;101197.97;5028363;28;20108;-68
2023/10/16 00:43:06;;;;;;;0.70;0.38;;;;;;;9.06;96.42;101200.31;5030463;28;20398;-68
2023/10/16 00:45:47;;;;;;;2.08;0.30;;;;;;;8.96;96.65;101187.31;5030123;28;20482;-68
2023/10/16 00:48:15;;;;;;;1.35;0.80;;;;;;;8.99;97.42;101190.13;5030125;28;20392;-67
2023/10/16 00:50:43;;;;;;;0.30;0.30;;;;;;;9.04;97.57;101200.66;5031374;28;20022;-69
2023/10/16 00:53:09;;;;;;;0.55;0.50;;;;;;;9.04;96.99;101195.28;5032176;28;20575;-69
2023/10/16 00:55:35;;;;;;;0.90;0.50;;;;;;;9.03;97.32;101184.88;5032419;28;20029;-69
2023/10/16 00:58:01;;;;;;;0.90;0.55;;;;;;;8.95;97.77;101191.91;5031503;28;20039;-69
2023/10/16 01:00:27;;;;;;;0.93;0.22;;;;;;;9.01;98.05;101177.16;5029542;28;20045;-69
2023/10/16 01:02:53;;;;;;;0.47;0.40;;;;;;;9.07;97.78;101183.91;5029959;28;20040;-69
2023/10/16 01:05:23;;;;;;;2.92;0.82;;;;;;;9.04;98.39;101168.41;5030730;28;20033;-69
2023/10/16 01:07:50;;;;;;;2.17;0.88;;;;;;;9.02;98.52;101173.34;5029810;28;20022;-69
2023/10/16 01:10:16;;;;;;;0.40;0.40;;;;;;;9.03;98.44;101169.56;5029541;28;20049;-69
2023/10/16 01:12:54;;;;;;;0.30;0.30;;;;;;;9.13;98.41;101167.56;5027786;28;20044;-67
2023/10/16 01:15:21;;;;;;;2.20;0.88;;;;;;;9.15;98.07;101165.31;5030633;28;20048;-68
2023/10/16 01:17:48;;;;;;;0.85;0.30;;;;;;;9.12;97.90;101171.38;5029555;28;20487;-67
2023/10/16 01:20:18;;;;;;;0.70;0.52;;;;;;;9.18;97.96;101173.50;5029226;28;20029;-68
2023/10/16 01:22:48;;;;;;;1.55;0.57;;;;;;;9.17;97.96;101174.63;5029141;28;20152;-67
2023/10/16 01:25:15;;;;;;;0.45;0.30;;;;;;;9.20;97.49;101162.41;5027072;28;20029;-68
2023/10/16 01:27:42;;;;;;;0.22;0.20;;;;;;;9.17;97.59;101166.56;5032092;28;20061;-67
2023/10/16 01:30:09;;;;;;;0.15;0.15;;;;;;;9.14;98.15;101164.53;5027446;28;20029;-68
2023/10/16 01:32:38;;;;;;;0.50;0.47;;;;;;;9.10;98.66;101161.72;5026989;28;20037;-68
2023/10/16 01:35:08;;;;;;;0.52;0.52;;;;;;;9.14;98.20;101171.81;5031869;28;20021;-69
2023/10/16 01:37:38;;;;;;;0.68;0.43;;;;;;;9.14;97.96;101169.13;5012718;28;20077;-68
2023/10/16 01:40:23;;;;;;;1.23;0.40;;;;;;;9.14;97.58;101177.19;5027288;28;20430;-69
2023/10/16 01:42:53;;;;;;;0.30;0.30;;;;;;;9.11;97.74;101167.88;5031240;28;20044;-67
2023/10/16 01:45:21;;;;;;;0.38;0.38;;;;;;;9.01;98.25;101182.53;5029579;28;20087;-68
2023/10/16 01:47:50;;;;;;;1.00;0.68;;;;;;;9.12;98.24;101190.94;5030548;28;20030;-67
2023/10/16 01:50:23;;;;;;;0.32;0.32;;;;;;;9.10;97.75;101183.22;5031387;28;20045;-68
2023/10/16 01:52:49;;;;;;;0.40;0.40;;;;;;;9.13;98.07;101191.72;5028591;28;20042;-68
2023/10/16 01:55:19;;;;;;;0.60;0.50;;;;;;;9.13;97.65;101187.16;5027318;28;20048;-68
2023/10/16 01:57:44;;;;;;;2.13;0.60;;;;;;;9.16;97.77;101188.38;5025037;28;20045;-68
2023/10/16 02:00:17;;;;;;;1.40;0.80;;;;;;;9.19;97.76;101191.19;5028993;28;20032;-68
2023/10/16 02:02:45;;;;;;;0.22;0.22;;;;;;;9.22;97.99;101200.47;5025098;28;20390;-68
2023/10/16 02:05:11;;;;;;;0.93;0.47;;;;;;;9.23;97.66;101213.63;5029434;28;20064;-68
2023/10/16 02:07:41;;;;;;;0.28;0.28;;;;;;;9.24;97.94;101206.31;5028287;28;20051;-68
2023/10/16 02:10:11;;;;;;;0.65;0.50;;;;;;;9.25;97.97;101206.00;5027372;28;20033;-67
2023/10/16 02:12:38;;;;;;;0.45;0.45;;;;;;;9.34;97.77;101212.06;5025261;28;20030;-68
2023/10/16 02:15:06;;;;;;;1.38;0.45;;;;;;;9.39;98.17;101205.69;5030062;28;20429;-68
2023/10/16 02:17:32;;;;;;;0.90;0.30;;;;;;;9.34;98.75;101212.06;5031720;28;20556;-68
2023/10/16 02:19:57;;;;;;;0.32;0.30;;;;;;;9.39;98.59;101208.38;5024462;28;20034;-67
2023/10/16 02:22:23;;;;;;;0.55;0.55;;;;;;;9.38;99.08;101204.13;5026152;28;20029;-68
2023/10/16 02:24:49;;;;;;;0.22;0.20;;;;;;;9.39;98.86;101203.00;5023700;28;20033;-67
2023/10/16 02:27:18;;;;;;;1.13;0.40;;;;;;;9.36;99.58;101193.69;5029511;28;20036;-69
2023/10/16 02:29:49;;;;;;;0.25;0.25;;;;;;;9.34;99.41;101192.47;5024886;28;20121;-68
2023/10/16 02:32:15;;;;;;;0.20;0.20;;;;;;;9.29;100.00;101198.81;5011688;28;20033;-68
2023/10/16 02:34:41;;;;;;;0.93;0.50;;;;;;;9.29;99.64;101198.06;5023553;28;20025;-68
2023/10/16 02:37:09;;;;;;;0.43;0.35;;;;;;;9.25;99.38;101197.16;5031185;28;20045;-69
2023/10/16 02:39:41;;;;;;;0.20;0.20;;;;;;;9.25;99.56;101195.25;5028709;28;20546;-68
2023/10/16 02:42:12;;;;;;;0.40;0.38;;;;;;;9.24;99.45;101196.34;5007759;28;20414;-67
2023/10/16 02:44:45;;;;;;;0.27;0.27;;;;;;;9.18;99.69;101196.88;5025213;28;20040;-68
2023/10/16 02:47:25;;;;;;;1.92;0.73;;;;;;;9.20;98.94;101200.81;5023397;28;20626;-68
2023/10/16 02:49:51;;;;;;;0.30;0.28;;;;;;;9.23;98.92;101210.13;5024039;28;20037;-68
2023/10/16 02:52:17;;;;;;;0.20;0.20;;;;;;;9.22;98.68;101216.59;5028472;28;20031;-68
2023/10/16 02:54:45;;;;;;;0.40;0.40;;;;;;;9.24;98.59;101211.69;5010910;28;20040;-68
2023/10/16 02:57:11;;;;;;;0.85;0.30;;;;;;;9.30;98.92;101213.84;5025682;28;20025;-67
2023/10/16 02:59:38;;;;;;;2.92;0.52;;;;;;;9.24;98.79;101215.16;5026722;28;20505;-68
2023/10/16 03:02:13;;;;;;;0.82;0.60;;;;;;;9.26;99.69;101220.19;5010351;28;20048;-68
2023/10/16 03:04:40;;;;;;;0.98;0.20;;;;;;;9.27;99.88;101217.19;5024366;28;20103;-68
2023/10/16 03:07:07;;;;;;;3.20;0.30;;;;;;;9.30;99.72;101210.38;5026411;28;20051;-68
2023/10/16 03:09:33;;;;;;;0.60;0.43;;;;;;;9.33;99.69;101215.09;5010821;28;20049;-68
2023/10/16 03:12:07;;;;;;;0.52;0.50;;;;;;;9.37;98.99;101216.00;5028040;28;20144;-68
2023/10/16 03:14:45;;;;;;;1.27;0.40;;;;;;;9.30;99.89;101205.78;5024943;28;20037;-68
2023/10/16 03:17:50;;;;;;;0.95;0.47;;;;;;;9.40;99.42;101215.31;5026223;28;20038;-68
2023/10/16 03:20:35;;;;;;;0.63;0.55;;;;;;;9.40;99.12;101216.13;5026902;28;20099;-69
2023/10/16 03:22:53;;;;;;;0.52;0.32;;;;;;;9.32;98.98;101208.13;5028051;28;20455;-68
2023/10/16 03:25:25;;;;;;;0.45;0.22;;;;;;;9.29;99.38;101211.50;5026146;28;20186;-68
2023/10/16 03:27:52;;;;;;;0.68;0.45;;;;;;;9.26;99.18;101222.88;5028279;28;20033;-68
2023/10/16 03:30:19;;;;;;;8.50;0.85;;;;;;;9.27;99.34;101217.19;5028025;28;20037;-67
2023/10/16 03:32:45;;;;;;;2.15;0.75;;;;;;;9.28;99.38;101217.97;5030096;28;20044;-68
2023/10/16 03:35:14;;;;;;;0.68;0.52;;;;;;;9.27;99.65;101219.09;5028877;28;20041;-68
2023/10/16 03:37:40;;;;;;;0.40;0.40;;;;;;;9.27;99.19;101214.50;5027277;28;20033;-68
2023/10/16 03:40:12;;;;;;;3.67;0.30;;;;;;;9.27;99.90;101213.72;5029324;28;20044;-69
2023/10/16 03:42:40;;;;;;;1.00;0.60;;;;;;;9.35;99.45;101218.22;5021395;28;20033;-67
2023/10/16 03:45:06;;;;;;;1.45;0.80;;;;;;;9.33;99.31;101220.47;5025845;28;20260;-67
2023/10/16 03:47:33;;;;;;;0.32;0.30;;;;;;;9.37;99.27;101224.06;5025572;28;20083;-68
2023/10/16 03:49:59;;;;;;;1.65;0.30;;;;;;;9.37;99.33;101221.38;5027638;28;20045;-68
2023/10/16 03:52:26;;;;;;;0.50;0.45;;;;;;;9.30;99.81;101207.69;5026334;28;20029;-68
2023/10/16 03:54:53;;;;;;;0.52;0.52;;;;;;;9.33;99.67;101204.34;5022045;28;20034;-68
2023/10/16 03:57:20;;;;;;;0.73;0.30;;;;;;;9.34;99.18;101208.59;5026328;28;20406;-69
2023/10/16 03:59:47;;;;;;;1.02;0.60;;;;;;;9.30;99.52;101207.69;5028770;28;20121;-67
2023/10/16 04:02:23;;;;;;;0.85;0.38;;;;;;;9.21;99.12;101201.63;5027722;28;20029;-68
2023/10/16 04:04:53;;;;;;;1.27;0.43;;;;;;;9.15;99.32;101197.56;5028184;28;20030;-67
2023/10/16 04:07:19;;;;;;;0.85;0.40;;;;;;;9.15;99.94;101208.31;5020736;28;20029;-68
2023/10/16 04:09:50;;;;;;;0.68;0.38;;;;;;;9.13;100.00;101199.78;5026732;28;20091;-66
2023/10/16 04:12:20;;;;;;;0.30;0.30;;;;;;;9.18;99.84;101205.75;5025221;28;20502;-69
2023/10/16 04:14:50;;;;;;;0.47;0.47;;;;;;;9.23;99.74;101199.38;5023759;28;20072;-67
2023/10/16 04:17:16;;;;;;;2.08;0.98;;;;;;;9.24;99.75;101201.72;5025168;28;20541;-69
2023/10/16 04:19:59;;;;;;;1.38;0.70;;;;;;;9.28;99.93;101201.84;5028482;28;20029;-68
2023/10/16 04:22:25;;;;;;;0.50;0.50;;;;;;;9.34;99.80;101203.22;5012768;28;20119;-68
2023/10/16 04:24:54;;;;;;;0.80;0.60;;;;;;;9.36;99.58;101198.28;5023119;28;20123;-68
2023/10/16 04:29:46;;;;;;;0.82;0.77;;;;;;;9.31;100.00;101203.88;5028796;28;20042;-67
2023/10/16 04:35:03;;;;;;;0.63;0.57;;;;;;;9.36;100.00;101200.97;5026532;28;20030;-67
2023/10/16 04:37:40;;;;;;;0.88;0.63;;;;;;;9.38;99.76;101196.84;5028886;28;20048;-68
2023/10/16 04:50:31;;;;;;;0.93;0.50;;;;;;;9.44;100.00;101208.16;5028172;28;20037;-67
2023/10/16 05:16:48;;;;;;;1.63;1.02;;;;;;;9.52;100.00;101213.47;5030753;28;20520;-67
2023/10/16 06:14:11;;;;;;;2.38;1.52;;;;;;;9.93;100.00;101225.91;5028410;28;20036;-67
2023/10/16 06:16:38;;;;;;;3.13;1.20;;;;;;;9.97;100.00;101226.81;5028771;28;20124;-69
2023/10/16 06:19:17;;;;;;;1.65;1.15;;;;;;;10.01;100.00;101220.44;5029055;28;20026;-66
2023/10/16 06:21:48;;;;;;;2.35;1.10;;;;;;;9.98;100.00;101226.50;5029362;28;20025;-68
2023/10/16 06:24:33;;;;;;;1.20;1.10;;;;;;;9.98;100.00;101221.13;5025561;28;20120;-68
2023/10/16 06:27:10;;;;;;;1.88;1.10;;;;;;;10.01;100.00;101235.78;5027793;28;20029;-68
2023/10/16 06:29:51;;;;;;;2.47;1.35;;;;;;;10.04;100.00;101232.44;5025560;28;20037;-68
2023/10/16 06:32:26;;;;;;;1.48;1.38;;;;;;;9.99;100.00;101233.44;5027401;28;20398;-68
2023/10/16 06:35:02;;;;;;;4.07;1.80;;;;;;;10.03;100.00;101233.53;5029408;28;20574;-68
2023/10/16 06:37:31;;;;;;;1.35;1.05;;;;;;;10.07;100.00;101241.72;5029611;28;20175;-68
2023/10/16 06:40:01;;;;;;;2.00;1.35;;;;;;;10.07;100.00;101245.22;5004236;28;20034;-68
2023/10/16 06:42:27;;;;;;;4.78;1.17;;;;;;;10.14;100.00;101248.19;5023840;28;20124;-68
2023/10/16 06:44:55;;;;;;;2.83;1.80;;;;;;;10.15;100.00;101257.00;5019397;28;20041;-67
2023/10/16 06:47:34;;;;;;;1.67;1.33;;;;;;;10.21;100.00;101256.47;5027751;28;20368;-68
2023/10/16 06:50:00;;;;;;;3.20;1.33;;;;;;;10.22;100.00;101258.00;5028957;28;20056;-68
2023/10/16 06:52:26;;;;;;;1.88;1.13;;;;;;;10.25;100.00;101257.34;5028781;28;21562;-68
2023/10/16 06:54:51;;;;;;;2.05;1.30;;;;;;;10.28;100.00;101261.28;5025312;28;20033;-68
2023/10/16 06:57:19;;;;;;;3.92;1.70;;;;;;;10.27;100.00;101257.00;5023783;28;20029;-67
2023/10/16 06:59:50;;;;;;;3.08;1.73;;;;;;;10.32;100.00;101267.53;5021156;28;20088;-68
2023/10/16 07:02:19;;;;;;;4.22;1.90;;;;;;;10.38;100.00;101271.59;5027743;28;20559;-67
2023/10/16 07:04:46;;;;;;;2.63;1.58;;;;;;;10.41;100.00;101273.63;5024560;28;20022;-68
2023/10/16 07:07:15;;;;;;;1.95;1.42;;;;;;;10.43;100.00;101272.13;5027211;28;20040;-68
2023/10/16 07:09:47;;;;;;;1.88;1.10;;;;;;;10.44;100.00;101270.22;5019640;28;20034;-68
2023/10/16 07:12:14;;;;;;;2.58;1.20;;;;;;;10.49;100.00;101265.41;5024385;28;20029;-68
2023/10/16 07:14:55;;;;;;;5.35;2.65;;;;;;;10.53;100.00;101268.22;5026789;28;20128;-68
2023/10/16 07:17:24;;;;;;;3.17;1.60;;;;;;;10.58;100.00;101271.47;5027206;28;20413;-68
2023/10/16 07:20:00;;;;;;;2.05;1.38;;;;;;;10.59;100.00;101262.25;5029490;28;20021;-68
2023/10/16 07:22:32;;;;;;;3.33;1.55;;;;;;;10.61;100.00;101261.91;5028259;28;20520;-67
2023/10/16 07:25:23;;;;;;;1.58;1.17;;;;;;;10.67;100.00;101272.13;5026348;28;20405;-68
2023/10/16 07:27:47;;;;;;;2.13;1.40;;;;;;;10.63;100.00;101268.53;5029378;28;20112;-68
2023/10/16 07:30:21;;;;;;;3.53;1.88;;;;;;;10.68;100.00;101268.28;5029211;28;20171;-68
2023/10/16 07:32:50;;;;;;;4.63;1.52;;;;;;;10.81;100.00;101260.97;5026133;28;20041;-67
2023/10/16 07:35:18;;;;;;;3.00;1.50;;;;;;;10.86;100.00;101266.09;5027705;28;20033;-68
2023/10/16 07:37:53;;;;;;;2.10;1.40;;;;;;;10.92;100.00;101264.75;5028452;28;20029;-68
2023/10/16 07:40:20;;;;;;;2.10;1.65;;;;;;;10.93;100.00;101266.34;5024502;28;20037;-67
2023/10/16 07:42:46;;;;;;;2.15;1.88;;;;;;;10.95;100.00;101257.91;5029088;28;20048;-68
2023/10/16 07:45:12;;;;;;;6.32;2.33;;;;;;;10.99;100.00;101267.66;5022686;28;20030;-67
2023/10/16 07:47:38;;;;;;;2.80;1.75;;;;;;;10.98;100.00;101274.16;5028250;28;20044;-68
2023/10/16 07:50:04;;;;;;;4.50;1.98;;;;;;;10.96;100.00;101281.81;5028256;28;20037;-68
2023/10/16 07:52:33;;;;;;;2.65;1.58;;;;;;;10.98;100.00;101286.84;5029501;28;20407;-68
2023/10/16 07:55:03;;;;;;;2.20;1.60;;;;;;;10.98;100.00;101286.84;5029194;28;20099;-68
2023/10/16 07:57:29;;;;;;;2.85;1.50;;;;;;;11.06;100.00;101289.41;5029567;28;20042;-68
2023/10/16 07:59:54;;;;;;;1.80;1.25;;;;;;;11.12;100.00;101295.34;5024510;28;20041;-69
2023/10/16 08:02:20;;;;;;;2.78;1.45;;;;;;;11.14;100.00;101298.50;5012816;28;20516;-68
2023/10/16 08:04:51;;;;;;;2.70;1.30;;;;;;;11.18;100.00;101291.28;5019201;28;20034;-66
2023/10/16 08:07:18;;;;;;;1.20;1.05;;;;;;;11.20;100.00;101287.13;5027799;28;20074;-68
2023/10/16 08:12:37;;;;;;;7.57;1.70;;;;;;;11.35;100.00;101310.66;5003316;28;20041;-68
2023/10/16 08:15:14;;;;;;;1.95;1.55;;;;;;;11.35;100.00;101305.25;5031029;28;20025;-68
2023/10/16 08:17:40;;;;;;;2.42;1.42;;;;;;;11.45;100.00;101304.00;5020985;28;20091;-67
2023/10/16 08:20:08;;;;;;;3.08;1.50;;;;;;;11.57;100.00;101312.03;5026441;28;20041;-67
2023/10/16 08:22:34;;;;;;;2.30;1.45;;;;;;;11.68;100.00;101311.22;5022455;28;20095;-67
2023/10/16 08:25:00;;;;;;;4.00;1.80;;;;;;;11.82;100.00;101301.91;5024380;28;20037;-67
2023/10/16 08:33:06;;;;;;;4.90;1.70;;;;;;;11.99;100.00;101315.06;5027946;28;20040;-67
2023/10/16 08:35:38;;;;;;;3.08;1.55;;;;;;;12.05;100.00;101317.16;5032215;28;20037;-68
2023/10/16 08:38:10;;;;;;;2.40;1.33;;;;;;;12.00;100.00;101322.81;5031583;28;20037;-68
2023/10/16 08:40:39;;;;;;;1.92;1.30;;;;;;;12.03;100.00;101318.63;5023229;28;20049;-67
2023/10/16 08:43:07;;;;;;;3.47;1.60;;;;;;;12.06;100.00;101316.03;5030970;28;20065;-67
2023/10/16 08:45:55;;;;;;;5.73;1.63;;;;;;;12.10;99.75;101316.91;5028813;28;20045;-68
2023/10/16 08:48:22;;;;;;;4.03;1.92;;;;;;;12.16;99.81;101309.31;5032850;28;20800;-67
2023/10/16 08:50:52;;;;;;;4.97;2.05;;;;;;;12.17;99.78;101319.78;5028122;28;20037;-67
2023/10/16 08:53:30;;;;;;;2.15;1.52;;;;;;;12.18;99.68;101317.84;5031491;28;20394;-67
2023/10/16 08:56:07;;;;;;;2.10;1.27;;;;;;;12.20;99.81;101316.38;5031298;28;20406;-67
2023/10/16 08:58:41;;;;;;;2.47;1.67;;;;;;;12.30;99.93;101315.88;5028943;28;20052;-67
2023/10/16 09:01:08;;;;;;;8.07;1.92;;;;;;;12.36;99.54;101327.97;5031163;28;20053;-67
2023/10/16 09:03:38;;;;;;;2.75;1.98;;;;;;;12.45;99.68;101333.19;5025377;28;20025;-67
2023/10/16 09:06:04;;;;;;;4.55;1.95;;;;;;;12.46;99.28;101327.44;5029920;28;20033;-66
2023/10/16 09:08:33;;;;;;;4.45;2.08;;;;;;;12.56;99.04;101331.53;5030545;28;20053;-67
2023/10/16 09:11:05;;;;;;;5.28;2.15;;;;;;;12.54;98.45;101329.16;5028892;28;20092;-67
2023/10/16 09:13:45;;;;;;;3.80;2.00;;;;;;;12.62;98.21;101335.50;5029687;28;20029;-67
2023/10/16 09:16:20;;;;;;;3.13;1.60;;;;;;;12.87;98.33;101328.75;5030869;28;20025;-67
2023/10/16 09:18:46;;;;;;;3.63;1.95;;;;;;;13.00;97.92;101329.41;5029449;28;20021;-67
2023/10/16 09:21:13;;;;;;;2.35;1.70;;;;;;;13.08;97.31;101341.97;5045433;28;20401;-67
2023/10/16 09:23:51;;;;;;;4.97;2.05;;;;;;;13.08;97.04;101342.78;5030649;28;20033;-68
2023/10/16 09:26:17;;;;;;;3.70;2.03;;;;;;;13.08;96.64;101347.38;5028931;28;20099;-67
2023/10/16 09:28:42;;;;;;;5.35;2.20;;;;;;;12.94;96.00;101347.84;5028257;28;20441;-67
2023/10/16 09:31:08;;;;;;;2.42;1.38;;;;;;;12.81;95.94;101345.59;5030953;28;20033;-67
2023/10/16 09:33:35;;;;;;;4.75;1.98;;;;;;;12.80;95.17;101352.13;5031524;28;20460;-66
2023/10/16 09:36:17;;;;;;;5.07;1.40;;;;;;;12.72;95.85;101339.63;5031399;28;20033;-67
2023/10/16 09:38:45;;;;;;;3.08;1.45;;;;;;;12.85;95.82;101349.97;5026941;28;20449;-67
2023/10/16 09:49:15;;;;;;;1.88;1.30;;;;;;;12.99;95.00;101352.19;5032695;28;20048;-67
2023/10/16 09:51:44;;;;;;;5.53;1.33;;;;;;;13.00;94.60;101353.75;5024118;28;20044;-67
2023/10/16 09:54:11;;;;;;;4.65;1.58;;;;;;;12.96;94.59;101347.47;5029432;28;20021;-67
2023/10/16 09:56:38;;;;;;;1.95;1.15;;;;;;;12.92;94.33;101357.44;5031300;28;20034;-67
2023/10/16 09:59:22;;;;;;;1.73;1.40;;;;;;;12.90;94.41;101362.41;5029590;28;20083;-65
2023/10/16 10:01:51;;;;;;;4.47;1.20;;;;;;;12.92;94.25;101358.22;5027791;28;20036;-67
2023/10/16 10:04:24;;;;;;;3.75;1.20;;;;;;;12.90;93.88;101354.28;5030060;28;20029;-67
2023/10/16 10:06:54;;;;;;;0.95;0.75;;;;;;;12.94;93.73;101360.56;5027662;28;20029;-67
2023/10/16 10:09:31;;;;;;;2.58;0.95;;;;;;;13.05;93.35;101356.19;5027465;28;20036;-67
2023/10/16 10:12:22;;;;;;;2.83;1.08;;;;;;;13.26;92.87;101352.03;5028232;28;20045;-67
2023/10/16 10:15:04;;;;;;;3.28;1.17;;;;;;;13.39;92.60;101358.09;5029545;28;20061;-67
2023/10/16 10:17:33;;;;;;;1.52;0.93;;;;;;;13.43;92.13;101361.66;5013395;28;20037;-66
2023/10/16 10:20:08;;;;;;;1.33;0.98;;;;;;;13.39;91.11;101368.91;5034454;28;20060;-67
2023/10/16 10:22:37;;;;;;;1.92;1.05;;;;;;;13.31;90.29;101356.38;5027363;28;20036;-67
2023/10/16 10:25:16;;;;;;;2.55;1.08;;;;;;;13.21;90.02;101348.81;5031214;28;20021;-67
2023/10/16 10:27:43;;;;;;;1.05;0.70;;;;;;;13.15;90.03;101371.88;5022490;28;20514;-67
2023/10/16 10:30:17;;;;;;;1.33;1.05;;;;;;;13.10;90.15;101366.75;5022475;28;20049;-67
2023/10/16 10:32:53;;;;;;;1.73;0.93;;;;;;;13.04;90.38;101362.75;5025034;28;20060;-67
2023/10/16 10:35:28;;;;;;;1.35;0.90;;;;;;;13.03;90.25;101370.06;5027720;28;20457;-67
2023/10/16 10:38:20;;;;;;;4.82;1.15;;;;;;;13.00;89.85;101356.44;5026328;28;20148;-67
2023/10/16 10:41:04;;;;;;;0.98;0.73;;;;;;;13.01;90.50;101364.19;5026836;28;20033;-67
2023/10/16 10:43:39;;;;;;;1.60;1.00;;;;;;;13.11;90.67;101360.19;5026547;28;20037;-67
2023/10/16 10:46:10;;;;;;;1.83;0.90;;;;;;;13.28;90.58;101357.06;5008041;28;20525;-67
2023/10/16 10:48:38;;;;;;;3.35;1.10;;;;;;;13.40;90.72;101363.13;5027577;28;20402;-67
2023/10/16 10:51:06;;;;;;;1.33;0.75;;;;;;;13.46;89.96;101350.91;5026760;28;20063;-67
2023/10/16 10:53:33;;;;;;;2.13;0.90;;;;;;;13.43;88.55;101357.00;5030003;28;20516;-67
2023/10/16 10:55:58;;;;;;;1.10;0.75;;;;;;;13.47;87.99;101357.09;5027546;28;20060;-67
2023/10/16 10:58:37;;;;;;;1.27;0.90;;;;;;;13.55;87.72;101359.56;5028269;28;20501;-67
2023/10/16 11:03:47;;;;;;;3.42;0.95;;;;;;;13.66;86.87;101356.28;5024951;28;20398;-67
2023/10/16 11:06:31;;;;;;;1.75;1.13;;;;;;;13.66;86.37;101351.66;5025620;28;20030;-67
2023/10/16 11:09:11;;;;;;;4.60;0.80;;;;;;;13.63;86.00;101355.06;5028665;28;20034;-67
2023/10/16 11:11:39;;;;;;;0.63;0.57;;;;;;;13.61;86.06;101343.81;5028856;28;20032;-67
2023/10/16 11:14:07;;;;;;;1.92;0.50;;;;;;;13.61;85.14;101343.06;5029762;28;20025;-67
2023/10/16 11:16:40;;;;;;;2.67;0.50;;;;;;;13.55;84.84;101342.53;5030696;28;20048;-68
2023/10/16 11:19:08;;;;;;;1.38;0.80;;;;;;;13.61;84.38;101341.13;5026193;28;20045;-68
2023/10/16 11:21:39;;;;;;;0.63;0.50;;;;;;;13.62;83.79;101345.41;5025256;28;20554;-67
2023/10/16 11:24:06;;;;;;;2.55;0.50;;;;;;;13.72;83.80;101344.03;5031372;28;20122;-68
2023/10/16 11:26:32;;;;;;;0.32;0.30;;;;;;;13.81;83.60;101342.66;5031721;28;20132;-68
2023/10/16 11:29:00;;;;;;;2.60;0.50;;;;;;;13.85;82.69;101351.63;5026989;28;20034;-67
2023/10/16 11:31:26;;;;;;;0.98;0.47;;;;;;;14.00;82.39;101342.63;5028685;28;20076;-67
2023/10/16 11:34:02;;;;;;;0.30;0.30;;;;;;;14.11;81.85;101343.56;5028532;28;20398;-69
2023/10/16 11:36:29;;;;;;;0.55;0.40;;;;;;;14.20;81.01;101344.13;5030010;28;20107;-69
2023/10/16 11:39:01;;;;;;;1.55;0.55;;;;;;;14.28;80.29;101342.34;5028989;28;20033;-67
2023/10/16 11:41:29;;;;;;;1.52;0.32;;;;;;;14.46;79.13;101336.06;5031601;28;20021;-67
2023/10/16 11:43:55;;;;;;;0.20;0.20;;;;;;;14.68;78.61;101339.88;5027368;28;20065;-69
2023/10/16 11:51:39;;;;;;;0.20;0.20;;;;;;;14.61;75.35;101337.06;5027088;28;20128;-67
2023/10/16 11:54:10;;;;;;;3.17;0.43;;;;;;;14.69;75.75;101336.00;5027887;28;20104;-67
2023/10/16 11:56:36;;;;;;;0.73;0.20;;;;;;;14.74;75.25;101340.34;5028351;28;20061;-67
2023/10/16 11:59:03;;;;;;;0.30;0.30;;;;;;;14.73;75.06;101336.09;5027349;28;20061;-67
2023/10/16 12:01:30;;;;;;;2.03;0.43;;;;;;;14.88;75.72;101341.34;5029003;28;20048;-67
2023/10/16 12:03:56;;;;;;;0.50;0.30;;;;;;;14.89;74.90;101347.53;5032998;28;20061;-68
2023/10/16 12:06:22;;;;;;;0.43;0.20;;;;;;;14.88;75.16;101345.97;5029989;28;20450;-67
2023/10/16 12:08:48;;;;;;;0.98;0.40;;;;;;;14.86;74.52;101337.44;5030592;28;20512;-67
2023/10/16 12:11:14;;;;;;;0.15;0.15;;;;;;;14.79;74.42;101342.75;5031018;28;20083;-68
2023/10/16 12:13:42;;;;;;;0.38;0.20;;;;;;;14.64;74.47;101346.38;5030646;28;20026;-67
2023/10/16 12:16:08;;;;;;;0.28;0.20;;;;;;;14.59;75.59;101349.41;5031853;28;20112;-67
2023/10/16 12:18:33;;;;;;;0.60;0.28;;;;;;;14.58;75.71;101345.13;5029929;28;20121;-67
2023/10/16 12:21:04;;;;;;;0.43;0.30;;;;;;;14.55;75.47;101343.94;5032138;28;20543;-67
2023/10/16 12:23:32;;;;;;;;;;;;;;;14.41;75.59;101339.09;5031258;28;20490;-67
2023/10/16 12:25:59;;;;;;;1.02;0.40;;;;;;;14.37;76.12;101340.97;5029388;28;20418;-67
2023/10/16 12:28:26;;;;;;;0.20;0.20;;;;;;;14.31;76.02;101352.44;5032881;28;20039;-67
2023/10/16 12:30:52;;;;;;;2.28;0.20;;;;;;;14.21;76.16;101350.31;5030058;28;20044;-67
2023/10/16 12:33:17;;;;;;;0.30;0.15;;;;;;;14.24;76.69;101347.69;5031169;28;20033;-67
2023/10/16 12:35:43;;;;;;;0.57;0.28;;;;;;;14.26;76.48;101358.94;5032583;28;20104;-67
2023/10/16 12:38:10;;;;;;;2.47;0.40;;;;;;;14.26;76.47;101350.81;5030763;28;20462;-66
2023/10/16 12:40:38;;;;;;;1.25;0.43;;;;;;;14.25;75.74;101351.94;5031359;28;20057;-67
2023/10/16 12:43:08;;;;;;;0.20;0.20;;;;;;;14.18;74.61;101349.13;5028975;28;20099;-67
2023/10/16 12:45:34;;;;;;;0.10;0.10;;;;;;;14.20;73.64;101356.88;5030962;28;20029;-67
2023/10/16 12:48:00;;;;;;;0.22;0.13;;;;;;;14.15;72.18;101357.97;5030135;28;20026;-68
2023/10/16 12:50:27;;;;;;;0.40;0.20;;;;;;;14.27;72.92;101355.09;5029536;28;20020;-67
2023/10/16 12:52:55;;;;;;;0.82;0.30;;;;;;;14.33;71.92;101352.88;5035160;28;20382;-67
2023/10/16 12:55:22;;;;;;;3.58;0.35;;;;;;;14.39;72.38;101349.50;5031718;28;20401;-67
2023/10/16 12:57:49;;;;;;;0.20;0.20;;;;;;;14.42;72.93;101353.41;5030956;28;20033;-67
2023/10/16 13:00:18;;;;;;;1.05;0.15;;;;;;;14.44;72.25;101348.41;5033869;28;20056;-68
2023/10/16 13:02:51;;;;;;;0.30;0.10;;;;;;;14.53;73.44;101351.66;5034238;28;20110;-68
2023/10/16 13:05:24;;;;;;;1.88;0.32;;;;;;;14.50;72.94;101354.31;5026098;28;20130;-67
2023/10/16 13:07:50;;;;;;;0.65;0.20;;;;;;;14.48;72.78;101349.25;5028881;28;20531;-67
2023/10/16 13:10:20;;;;;;;1.08;0.25;;;;;;;14.48;71.95;101349.25;5031010;28;20027;-67
2023/10/16 13:12:47;;;;;;;0.35;0.20;;;;;;;14.54;72.05;101344.31;5028826;28;20037;-67
2023/10/16 13:15:16;;;;;;;6.63;0.40;;;;;;;14.54;71.85;101352.44;5025948;28;20045;-67
2023/10/16 13:17:44;;;;;;;0.28;0.17;;;;;;;14.61;72.25;101349.84;5025746;28;20042;-67
2023/10/16 13:20:17;;;;;;;0.52;0.20;;;;;;;14.61;72.37;101347.91;5014345;28;20029;-67
2023/10/16 13:22:49;;;;;;;0.65;0.20;;;;;;;14.62;72.18;101346.75;5025035;28;20026;-67
2023/10/16 13:25:18;;;;;;;2.17;0.40;;;;;;;14.63;73.38;101356.47;5030124;28;20450;-68
2023/10/16 13:27:44;;;;;;;0.43;0.13;;;;;;;14.66;72.58;101347.59;5026285;28;20779;-67
2023/10/16 13:30:16;;;;;;;0.10;0.10;;;;;;;14.72;72.30;101348.06;5027465;28;20155;-66
2023/10/16 13:32:46;;;;;;;0.35;0.10;;;;;;;14.75;71.71;101352.78;5026175;28;20041;-67
2023/10/16 13:35:13;;;;;;;0.35;0.30;;;;;;;14.83;71.60;101341.63;5030535;28;20025;-67
2023/10/16 13:37:42;;;;;;;0.57;0.22;;;;;;;14.84;71.99;101351.34;5027643;28;20401;-67